Time;durP1;ratioP1;P1;durP2;ratioP2;P2;SDS_P1;SDS_P2;PMS_P1;PMS_P2;Temp;Humidity;BMP_temperature;BMP_pressure;BME280_temperature;BME280_humidity;BME280_pressure;Samples;Min_cycle;Max_cycle;Signal;HPM_P1;HPM_P2
2022/06/28 00:00:11;;;;;;;15.43;9.80;;;;;;;;;;5024694;28;20037;-85
2022/06/28 00:02:37;;;;;;;11.35;10.15;;;;;;;;;;5032682;28;20092;-83
2022/06/28 00:05:04;;;;;;;11.30;9.88;;;;;;;;;;5032661;28;20123;-83
2022/06/28 00:07:30;;;;;;;13.63;11.10;;;;;;;;;;5030807;28;20501;-83
2022/06/28 00:09:56;;;;;;;11.48;10.27;;;;;;;;;;5033775;28;20078;-88
2022/06/28 00:12:22;;;;;;;11.35;9.27;;;;;;;;;;5032564;28;20056;-91
2022/06/28 00:17:33;;;;;;;11.90;10.70;;;;;;;;;;5030342;28;20053;-88
2022/06/28 00:19:59;;;;;;;14.40;10.75;;;;;;;;;;5017050;28;20041;-89
2022/06/28 00:22:25;;;;;;;15.13;10.95;;;;;;;;;;5016747;28;20132;-87
2022/06/28 00:24:51;;;;;;;15.45;11.35;;;;;;;;;;5014708;28;20107;-86
2022/06/28 00:27:18;;;;;;;11.73;9.73;;;;;;;;;;5028491;28;20064;-90
2022/06/28 00:29:44;;;;;;;12.30;10.30;;;;;;;;;;5008084;28;20046;-89
2022/06/28 00:32:10;;;;;;;13.40;10.80;;;;;;;;;;5015316;28;20050;-85
2022/06/28 00:34:36;;;;;;;12.30;10.48;;;;;;;;;;5020555;28;20036;-89
2022/06/28 00:37:02;;;;;;;12.82;11.52;;;;;;;;;;5011870;28;20454;-87
2022/06/28 00:39:28;;;;;;;13.40;10.27;;;;;;;;;;5012634;28;20091;-88
2022/06/28 00:41:54;;;;;;;13.85;10.20;;;;;;;;;;5035848;28;20055;-89
2022/06/28 00:44:21;;;;;;;13.40;9.48;;;;;;;;;;5019533;28;20505;-85
2022/06/28 00:46:47;;;;;;;14.82;9.93;;;13.80;99.90;;;;;;5018963;28;20056;-85
2022/06/28 00:49:14;;;;;;;16.42;10.43;;;;;;;;;;5019736;28;20044;-85
2022/06/28 00:51:40;;;;;;;12.93;10.57;;;;;;;;;;5020029;28;20124;-88
2022/06/28 00:54:06;;;;;;;15.43;10.70;;;;;;;;;;5017725;28;20033;-89
2022/06/28 00:56:32;;;;;;;11.77;10.38;;;;;;;;;;5015012;28;20049;-89
2022/06/28 00:58:58;;;;;;;14.15;11.48;;;;;;;;;;5015032;28;20038;-89
2022/06/28 01:01:25;;;;;;;10.98;9.73;;;;;;;;;;5016418;28;20049;-87
2022/06/28 01:03:51;;;;;;;12.68;9.38;;;;;;;;;;5035553;28;20056;-90
2022/06/28 01:06:18;;;;;;;13.27;10.10;;;;;;;;;;5018611;28;20119;-87
2022/06/28 01:08:45;;;;;;;12.75;9.40;;;;;;;;;;5035274;28;20047;-88
2022/06/28 01:11:21;;;;;;;12.73;9.27;;;;;;;;;;5019408;28;20040;-88
2022/06/28 01:13:51;;;;;;;13.85;9.68;;;;;;;;;;5035105;28;20120;-89
2022/06/28 01:16:18;;;;;;;14.43;10.05;;;;;;;;;;5018611;28;20045;-88
2022/06/28 01:18:47;;;;;;;13.25;9.43;;;;;;;;;;5010370;28;20052;-88
2022/06/28 01:21:14;;;;;;;12.20;9.82;;;;;;;;;;5020749;28;20041;-84
2022/06/28 01:23:44;;;;;;;10.98;9.57;;;13.50;99.90;;;;;;5016429;28;21550;-83
2022/06/28 01:26:14;;;;;;;13.20;9.93;;;;;;;;;;5017625;28;20212;-84
2022/06/28 01:28:41;;;;;;;14.88;10.98;;;;;;;;;;5009205;28;20056;-84
2022/06/28 01:31:07;;;;;;;14.15;10.57;;;;;;;;;;5008403;28;20047;-84
2022/06/28 01:33:36;;;;;;;14.07;9.65;;;;;;;;;;5019268;28;20047;-84
2022/06/28 01:36:04;;;;;;;21.67;11.07;;;;;;;;;;5024833;28;20413;-83
2022/06/28 01:38:30;;;;;;;12.45;10.68;;;;;;;;;;5018585;28;20094;-83
2022/06/28 01:40:56;;;;;;;18.92;10.07;;;;;;;;;;5018662;28;20397;-83
2022/06/28 01:43:22;;;;;;;16.08;9.60;;;;;;;;;;5018516;28;20391;-83
2022/06/28 01:45:49;;;;;;;10.57;9.07;;;;;;;;;;5017272;28;20033;-83
2022/06/28 01:48:18;;;;;;;14.07;9.82;;;;;;;;;;5034681;28;20041;-83
2022/06/28 01:50:44;;;;;;;14.43;9.73;;;;;;;;;;5019817;28;20075;-82
2022/06/28 01:53:10;;;;;;;11.63;9.48;;;;;;;;;;5017914;28;20037;-84
2022/06/28 01:55:36;;;;;;;11.25;9.07;;;;;;;;;;5016681;28;20056;-83
2022/06/28 01:58:02;;;;;;;16.58;9.77;;;;;;;;;;5033236;28;20556;-82
2022/06/28 02:00:29;;;;;;;18.58;10.25;;;;;;;;;;5019509;28;20075;-82
2022/06/28 02:02:55;;;;;;;16.42;9.70;;;;;;;;;;5016108;28;20140;-83
2022/06/28 02:05:21;;;;;;;13.95;9.43;;;;;;;;;;5048137;28;20045;-85
2022/06/28 02:07:49;;;;;;;9.85;8.65;;;;;;;;;;5043992;28;20076;-86
2022/06/28 02:10:15;;;;;;;10.43;8.93;;;;;;;;;;5032901;28;20060;-85
2022/06/28 02:12:41;;;;;;;11.63;9.10;;;;;;;;;;5034660;28;20083;-85
2022/06/28 02:15:08;;;;;;;10.18;9.02;;;;;;;;;;5015101;28;20099;-83
2022/06/28 02:17:34;;;;;;;9.90;8.60;;;;;;;;;;5033438;28;20041;-84
2022/06/28 02:20:00;;;;;;;9.52;8.02;;;;;;;;;;5017971;28;20128;-84
2022/06/28 02:22:26;;;;;;;12.63;9.00;;;;;;;;;;5018391;28;20040;-84
2022/06/28 02:24:52;;;;;;;14.68;9.02;;;;;;;;;;5017151;28;20048;-89
2022/06/28 02:27:18;;;;;;;11.77;7.55;;;;;;;;;;5024929;28;20525;-84
2022/06/28 02:29:44;;;;;;;17.13;8.93;;;;;;;;;;5034681;28;20490;-89
2022/06/28 02:32:11;;;;;;;10.48;7.90;;;;;;;;;;5011152;28;20128;-88
2022/06/28 02:40:23;;;;;;;12.10;8.15;;;;;;;;;;5028202;28;20049;-88
2022/06/28 02:42:58;;;;;;;11.13;8.30;;;13.10;99.90;;;;;;5034103;28;20087;-92
2022/06/28 02:45:26;;;;;;;10.05;8.48;;;;;;;;;;5016876;28;20076;-88
2022/06/28 02:47:52;;;;;;;14.18;8.73;;;;;;;;;;5018769;28;20045;-85
2022/06/28 02:50:18;;;;;;;12.07;8.27;;;;;;;;;;5034350;28;20378;-86
2022/06/28 02:52:44;;;;;;;12.10;9.05;;;;;;;;;;5017780;28;20045;-89
2022/06/28 02:55:11;;;;;;;10.93;8.80;;;;;;;;;;5015515;28;20099;-83
2022/06/28 02:57:38;;;;;;;11.15;9.10;;;13.20;99.90;;;;;;5019445;28;20424;-83
2022/06/28 03:00:10;;;;;;;12.35;8.90;;;13.10;99.90;;;;;;5056189;28;20046;-84
2022/06/28 03:02:38;;;;;;;10.05;9.02;;;;;;;;;;5033723;28;20060;-83
2022/06/28 03:05:05;;;;;;;10.43;8.85;;;;;;;;;;5033616;28;20033;-82
2022/06/28 03:07:31;;;;;;;10.07;8.80;;;;;;;;;;5015057;28;20048;-83
2022/06/28 03:09:57;;;;;;;10.68;8.90;;;;;;;;;;5017268;28;20048;-83
2022/06/28 03:12:23;;;;;;;12.60;8.35;;;;;;;;;;5017001;28;20049;-84
2022/06/28 03:14:49;;;;;;;13.93;8.93;;;;;;;;;;5033413;28;20122;-83
2022/06/28 03:17:15;;;;;;;15.63;8.93;;;;;;;;;;5015579;28;20448;-84
2022/06/28 03:19:41;;;;;;;13.98;8.82;;;;;;;;;;5032754;28;20398;-83
2022/06/28 03:22:07;;;;;;;13.45;8.23;;;;;;;;;;5012353;28;20397;-82
2022/06/28 03:24:33;;;;;;;13.18;9.35;;;;;;;;;;5022061;28;20516;-83
2022/06/28 03:26:59;;;;;;;13.07;9.77;;;;;;;;;;5015268;28;20057;-85
2022/06/28 03:29:25;;;;;;;12.15;8.90;;;;;;;;;;5033027;28;20111;-83
2022/06/28 03:31:51;;;;;;;15.80;8.50;;;;;;;;;;5007226;28;20506;-84
2022/06/28 03:34:19;;;;;;;9.27;7.80;;;12.80;99.90;;;;;;5010476;28;20037;-83
2022/06/28 03:36:45;;;;;;;13.35;8.45;;;;;;;;;;5050011;28;20147;-84
2022/06/28 03:39:11;;;;;;;11.68;8.32;;;;;;;;;;5007191;28;20516;-82
2022/06/28 03:41:37;;;;;;;10.02;8.30;;;;;;;;;;5016742;28;20128;-84
2022/06/28 03:44:03;;;;;;;11.88;8.38;;;;;;;;;;5008321;28;20128;-84
2022/06/28 03:46:30;;;;;;;11.68;8.90;;;;;;;;;;5016478;28;20090;-85
2022/06/28 03:48:56;;;;;;;12.32;8.48;;;;;;;;;;5015345;28;20406;-83
2022/06/28 03:51:22;;;;;;;13.85;9.10;;;;;;;;;;5006357;28;20052;-89
2022/06/28 03:53:48;;;;;;;13.73;8.48;;;;;;;;;;5004323;28;20079;-90
2022/06/28 03:56:14;;;;;;;14.85;8.65;;;;;;;;;;5016126;28;20037;-89
2022/06/28 03:58:40;;;;;;;12.50;8.48;;;;;;;;;;5031213;28;20084;-88
2022/06/28 04:01:06;;;;;;;13.38;8.15;;;;;;;;;;5016457;28;20409;-90
2022/06/28 04:03:34;;;;;;;12.88;8.77;;;;;;;;;;5030860;28;20045;-88
2022/06/28 04:06:00;;;;;;;11.57;8.15;;;;;;;;;;5036757;28;20041;-89
2022/06/28 04:08:26;;;;;;;11.85;8.45;;;;;;;;;;5020443;28;20045;-88
2022/06/28 04:13:38;;;;;;;13.95;8.77;;;;;;;;;;5058249;28;20184;-89
2022/06/28 04:16:04;;;;;;;16.38;8.25;;;;;;;;;;5034624;28;20042;-88
2022/06/28 04:18:30;;;;;;;11.55;7.03;;;;;;;;;;5020433;28;20410;-84
2022/06/28 04:20:57;;;;;;;9.15;7.63;;;;;;;;;;5019990;28;20052;-90
2022/06/28 04:23:24;;;;;;;13.02;7.85;;;12.80;99.90;;;;;;5014678;28;20045;-87
2022/06/28 04:25:50;;;;;;;10.13;8.32;;;;;;;;;;5021106;28;20045;-88
2022/06/28 04:28:16;;;;;;;11.95;8.15;;;;;;;;;;5027241;28;20061;-87
2022/06/28 04:30:42;;;;;;;11.25;8.25;;;;;;;;;;5019906;28;20072;-83
2022/06/28 04:33:08;;;;;;;12.90;8.38;;;;;;;;;;5019832;28;20076;-82
2022/06/28 04:35:37;;;;;;;12.35;7.75;;;;;;;;;;5036759;28;20486;-83
2022/06/28 04:38:06;;;;;;;11.48;7.53;;;;;;;;;;5029857;28;20453;-85
2022/06/28 04:40:32;;;;;;;15.32;8.30;;;;;;;;;;5025602;28;20056;-83
2022/06/28 04:42:59;;;;;;;9.88;7.68;;;;;;;;;;5018092;28;20103;-83
2022/06/28 04:45:25;;;;;;;9.13;7.70;;;;;;;;;;5002712;28;20060;-83
2022/06/28 04:47:51;;;;;;;12.77;7.78;;;;;;;;;;5017909;28;20068;-83
2022/06/28 04:50:17;;;;;;;10.40;7.55;;;;;;;;;;5035977;28;20033;-83
2022/06/28 04:52:46;;;;;;;15.95;8.77;;;;;;;;;;5052850;28;20041;-83
2022/06/28 04:55:12;;;;;;;10.40;7.10;;;;;;;;;;5026937;28;20108;-83
2022/06/28 04:57:38;;;;;;;11.98;7.07;;;;;;;;;;5034648;28;20045;-83
2022/06/28 05:00:05;;;;;;;10.80;7.75;;;;;;;;;;5019856;28;20044;-84
2022/06/28 05:02:31;;;;;;;10.32;6.85;;;;;;;;;;5034090;28;20041;-83
2022/06/28 05:04:57;;;;;;;15.18;7.30;;;;;;;;;;5043925;28;20094;-83
2022/06/28 05:07:23;;;;;;;7.95;6.32;;;;;;;;;;5021967;28;20048;-84
2022/06/28 05:09:49;;;;;;;11.25;5.93;;;;;;;;;;5019492;28;20436;-84
2022/06/28 05:12:15;;;;;;;9.07;6.63;;;;;;;;;;5044283;28;20124;-83
2022/06/28 05:14:41;;;;;;;10.50;7.00;;;;;;;;;;5024647;28;20041;-83
2022/06/28 05:17:08;;;;;;;9.65;6.35;;;;;;;;;;5032338;28;20045;-83
2022/06/28 05:19:35;;;;;;;9.85;5.97;;;;;;;;;;5035929;28;20037;-83
2022/06/28 05:22:01;;;;;;;9.85;6.68;;;;;;;;;;5053895;28;20103;-87
2022/06/28 05:24:27;;;;;;;8.70;6.00;;;;;;;;;;5047599;28;20045;-85
2022/06/28 05:26:53;;;;;;;14.52;6.85;;;;;;;;;;5034821;28;20067;-85
2022/06/28 05:29:20;;;;;;;10.27;5.95;;;;;;;;;;5019758;28;20106;-87
2022/06/28 05:31:46;;;;;;;9.35;5.60;;;;;;;;;;5008201;28;20513;-86
2022/06/28 05:34:12;;;;;;;6.22;5.63;;;;;;;;;;5013918;28;20044;-87
2022/06/28 05:36:42;;;;;;;9.95;5.90;;;;;;;;;;5033531;28;20102;-88
2022/06/28 05:39:08;;;;;;;8.73;5.53;;;;;;;;;;5041989;28;20055;-85
2022/06/28 05:41:34;;;;;;;12.02;5.22;;;;;;;;;;5027764;28;20070;-88
2022/06/28 05:44:00;;;;;;;7.47;5.28;;;;;;;;;;5035374;28;20076;-84
2022/06/28 05:46:26;;;;;;;5.57;4.85;;;;;;;;;;5035670;28;20044;-83
2022/06/28 05:48:53;;;;;;;7.82;5.43;;;;;;;;;;5043990;28;20041;-84
2022/06/28 05:51:19;;;;;;;11.88;5.00;;;;;;;;;;5020385;28;20106;-83
2022/06/28 05:53:45;;;;;;;10.43;5.25;;;;;;;;;;5010458;28;20546;-84
2022/06/28 05:56:11;;;;;;;10.18;5.00;;;;;;;;;;5034396;28;20057;-86
2022/06/28 05:58:37;;;;;;;8.52;5.25;;;;;;;;;;5042634;28;20087;-85
2022/06/28 06:01:04;;;;;;;9.98;4.85;;;;;;;;;;5034570;28;20041;-84
2022/06/28 06:03:30;;;;;;;5.93;4.35;;;;;;;;;;5034654;28;20406;-84
2022/06/28 06:05:56;;;;;;;7.22;4.03;;;;;;;;;;5044812;28;20408;-85
2022/06/28 06:08:22;;;;;;;9.70;4.45;;;;;;;;;;5030350;28;20489;-84
2022/06/28 06:10:48;;;;;;;7.13;4.03;;;;;;;;;;5034684;28;20402;-84
2022/06/28 06:13:15;;;;;;;7.03;4.80;;;;;;;;;;5033708;28;20133;-84
2022/06/28 06:15:41;;;;;;;11.82;4.25;;;;;;;;;;5000235;28;20501;-85
2022/06/28 06:18:07;;;;;;;6.93;3.45;;;;;;;;;;5012139;28;20402;-84
2022/06/28 06:20:33;;;;;;;11.52;4.50;;;;;;;;;;5017275;28;20131;-85
2022/06/28 06:22:59;;;;;;;7.57;3.70;;;;;;;;;;5034361;28;20117;-84
2022/06/28 06:25:25;;;;;;;8.30;3.47;;;;;;;;;;5017417;28;20049;-83
2022/06/28 06:27:51;;;;;;;7.30;3.70;;;;;;;;;;5019958;28;20049;-84
2022/06/28 06:30:17;;;;;;;6.70;4.15;;;;;;;;;;5003802;28;20401;-83
2022/06/28 06:32:43;;;;;;;6.70;4.45;;;;;;;;;;5033510;28;20489;-84
2022/06/28 06:35:10;;;;;;;6.50;3.70;;;;;;;;;;5017530;28;20049;-85
2022/06/28 06:37:36;;;;;;;10.63;4.72;;;;;;;;;;5016526;28;20037;-82
2022/06/28 06:40:03;;;;;;;8.13;3.47;;;15.90;99.90;;;;;;5017230;28;20116;-82
2022/06/28 06:42:29;;;;;;;6.05;3.92;;;;;;;;;;5017573;28;20047;-82
2022/06/28 06:44:55;;;;;;;7.78;3.40;;;;;;;;;;5015283;28;20133;-82
2022/06/28 06:47:21;;;;;;;6.72;4.07;;;;;;;;;;5014632;28;20536;-83
2022/06/28 06:49:47;;;;;;;6.88;3.05;;;;;;;;;;5009546;28;20048;-82
2022/06/28 06:52:13;;;;;;;9.20;3.58;;;;;;;;;;5034173;28;20501;-82
2022/06/28 06:54:39;;;;;;;7.50;3.72;;;;;;;;;;5033879;28;20071;-82
2022/06/28 06:57:05;;;;;;;15.13;4.47;;;;;;;;;;5031796;28;20049;-82
2022/06/28 06:59:31;;;;;;;13.60;4.15;;;;;;;;;;5011011;28;20099;-83
2022/06/28 07:01:57;;;;;;;7.40;3.55;;;;;;;;;;5013387;28;20049;-84
2022/06/28 07:04:23;;;;;;;7.88;3.35;;;;;;;;;;5033643;28;20048;-83
2022/06/28 07:06:49;;;;;;;9.63;3.70;;;;;;;;;;5015483;28;20041;-83
2022/06/28 07:09:15;;;;;;;8.63;3.17;;;;;;;;;;5016956;28;20047;-82
2022/06/28 07:11:42;;;;;;;7.80;3.33;;;;;;;;;;5033554;28;20044;-82
2022/06/28 07:14:08;;;;;;;8.23;3.13;;;;;;;;;;5032517;28;20044;-82
2022/06/28 07:16:34;;;;;;;7.15;2.67;;;;;;;;;;5025669;28;20040;-82
2022/06/28 07:18:59;;;;;;;9.65;3.10;;;17.40;99.90;;;;;;5015616;28;20086;-82
2022/06/28 07:21:27;;;;;;;9.55;2.97;;;17.10;99.90;;;;;;5032954;28;20095;-82
2022/06/28 07:23:53;;;;;;;7.50;2.00;;;;;;;;;;5015773;28;20383;-82
2022/06/28 07:26:20;;;;;;;12.20;3.58;;;;;;;;;;5001850;28;20422;-82
2022/06/28 07:28:46;;;;;;;7.53;3.15;;;17.40;99.90;;;;;;5025038;28;20047;-82
2022/06/28 07:31:13;;;;;;;5.43;2.47;;;;;;;;;;5032969;28;20041;-82
2022/06/28 07:33:39;;;;;;;12.98;2.40;;;;;;;;;;5015534;28;20041;-82
2022/06/28 07:36:05;;;;;;;8.30;2.00;;;17.40;99.90;;;;;;5033313;28;20037;-82
2022/06/28 07:38:31;;;;;;;8.57;2.38;;;;;;;;;;5016616;28;20120;-82
2022/06/28 07:40:57;;;;;;;4.57;2.50;;;17.50;99.90;;;;;;5013797;28;20053;-82
2022/06/28 07:43:25;;;;;;;8.40;2.45;;;;;;;;;;5033026;28;20474;-85
2022/06/28 07:45:52;;;;;;;6.35;2.75;;;17.50;99.90;;;;;;5015936;28;20452;-84
2022/06/28 07:48:19;;;;;;;8.63;2.08;;;;;;;;;;5004088;28;20095;-87
2022/06/28 07:53:30;;;;;;;7.88;2.13;;;;;;;;;;5050583;28;20050;-83
2022/06/28 07:55:57;;;;;;;5.82;1.95;;;;;;;;;;4998395;28;20042;-84
2022/06/28 07:58:23;;;;;;;6.97;2.13;;;;;;;;;;5032873;28;20041;-87
2022/06/28 08:00:49;;;;;;;3.20;1.77;;;;;;;;;;5016857;28;20056;-83
2022/06/28 08:03:15;;;;;;;4.95;1.75;;;;;;;;;;5031663;28;20040;-86
2022/06/28 08:05:41;;;;;;;7.18;1.92;;;;;;;;;;5025676;28;20563;-86
2022/06/28 08:08:07;;;;;;;6.82;2.55;;;;;;;;;;4998776;28;20511;-85
2022/06/28 08:10:33;;;;;;;7.55;2.00;;;;;;;;;;5032869;28;20090;-83
2022/06/28 08:12:59;;;;;;;6.70;1.55;;;;;;;;;;5016663;28;20051;-86
2022/06/28 08:15:25;;;;;;;3.83;1.30;;;;;;;;;;5031381;28;20152;-87
2022/06/28 08:17:51;;;;;;;4.68;1.90;;;;;;;;;;5026620;28;20132;-84
2022/06/28 08:20:17;;;;;;;2.90;1.75;;;;;;;;;;4997475;28;20095;-85
2022/06/28 08:22:43;;;;;;;4.63;1.73;;;;;;;;;;5032098;28;20041;-82
2022/06/28 08:25:09;;;;;;;1.90;1.23;;;;;;;;;;5030772;28;20037;-86
2022/06/28 08:27:36;;;;;;;3.28;1.35;;;;;;;;;;5029281;28;20081;-83
2022/06/28 08:30:02;;;;;;;5.65;1.95;;;;;;;;;;5014135;28;20076;-87
2022/06/28 08:32:28;;;;;;;1.17;0.90;;;;;;;;;;5014889;28;20143;-87
2022/06/28 08:34:54;;;;;;;8.00;1.38;;;;;;;;;;5033252;28;20037;-84
2022/06/28 08:37:20;;;;;;;3.60;1.38;;;;;;;;;;5029843;28;20102;-85
2022/06/28 08:39:47;;;;;;;3.38;1.75;;;;;;;;;;5012544;28;20513;-86
2022/06/28 08:42:18;;;;;;;3.30;1.00;;;18.90;99.90;;;;;;5008745;28;20046;-88
2022/06/28 08:44:47;;;;;;;4.10;1.60;;;19.00;99.90;;;;;;5048915;28;20040;-84
2022/06/28 08:47:14;;;;;;;2.97;1.45;;;19.10;99.90;;;;;;5024469;28;20040;-82
2022/06/28 08:50:19;;;;;;;6.60;1.88;;;19.00;99.90;;;;;;5031006;28;20553;-82
2022/06/28 08:52:45;;;;;;;;;;;21.20;99.90;;;;;;4958972;28;20070;-82
2022/06/28 08:55:11;;;;;;;4.85;1.80;;;;;;;;;;4976322;28;20033;-82
2022/06/28 08:57:39;;;;;;;4.35;1.55;;;19.50;99.90;;;;;;4976470;28;20178;-83
2022/06/28 09:00:10;;;;;;;2.08;1.30;;;19.60;99.90;;;;;;4975876;28;20046;-82
2022/06/28 09:02:37;;;;;;;9.00;1.65;;;19.50;99.90;;;;;;4976201;28;20148;-83
2022/06/28 09:05:03;;;;;;;5.88;1.92;;;19.60;99.90;;;;;;4977536;28;20038;-81
2022/06/28 09:07:29;;;;;;;4.25;1.50;;;;;;;;;;4976336;28;20053;-82
2022/06/28 09:09:56;;;;;;;2.28;1.27;;;19.60;99.90;;;;;;4973617;28;20054;-81
2022/06/28 09:12:22;;;;;;;5.05;1.55;;;;;;;;;;4992208;28;20046;-82
2022/06/28 09:14:48;;;;;;;11.55;2.13;;;;;;;;;;4975689;28;20089;-81
2022/06/28 09:17:25;;;;;;;6.82;2.03;;;19.90;99.90;;;;;;4976176;28;20576;-82
2022/06/28 09:19:58;;;;;;;7.13;2.33;;;19.60;99.90;;;;;;4957465;28;20039;-82
2022/06/28 09:22:31;;;;;;;4.68;1.60;;;19.80;99.90;;;;;;4959761;28;20145;-81
2022/06/28 09:24:57;;;;;;;6.00;1.40;;;19.80;99.90;;;;;;4975073;28;20535;-84
2022/06/28 09:27:35;;;;;;;2.60;1.48;;;19.90;99.90;;;;;;4959576;28;20618;-83
2022/06/28 09:30:04;;;;;;;6.72;1.75;;;20.10;99.90;;;;;;5022953;28;20049;-81
2022/06/28 09:32:33;;;;;;;3.65;1.35;;;19.90;99.90;;;;;;5033860;28;20052;-82
2022/06/28 09:35:05;;;;;;;2.67;1.58;;;20.00;99.90;;;;;;5068527;28;20052;-83
2022/06/28 09:37:39;;;;;;;6.38;1.45;;;19.70;99.90;;;;;;5051426;28;20048;-82
2022/06/28 09:40:17;;;;;;;3.30;1.50;;;19.80;99.90;;;;;;5014355;28;20040;-81
2022/06/28 09:42:45;;;;;;;4.43;1.80;;;19.60;99.90;;;;;;5024792;28;20061;-82
2022/06/28 09:45:14;;;;;;;7.25;1.55;;;19.70;99.90;;;;;;5034424;28;20041;-82
2022/06/28 09:47:48;;;;;;;3.88;1.55;;;19.70;99.90;;;;;;5028552;28;20486;-81
2022/06/28 09:50:19;;;;;;;6.70;1.80;;;19.90;99.90;;;;;;5016177;28;20033;-82
2022/06/28 09:52:45;;;;;;;3.65;1.40;;;;;;;;;;5035008;28;20084;-82
2022/06/28 09:55:14;;;;;;;5.82;1.60;;;19.50;99.90;;;;;;5018065;28;20055;-82
2022/06/28 09:57:46;;;;;;;6.63;1.65;;;19.40;99.90;;;;;;5026427;28;20041;-82
2022/06/28 10:00:14;;;;;;;3.47;1.80;;;19.60;99.90;;;;;;5050817;28;20033;-84
2022/06/28 10:02:42;;;;;;;4.10;1.73;;;19.60;99.90;;;;;;5010485;28;20045;-83
2022/06/28 10:05:09;;;;;;;4.93;1.55;;;19.60;99.90;;;;;;5018217;28;20516;-82
2022/06/28 10:07:36;;;;;;;6.68;1.98;;;;;;;;;;5011813;28;20116;-82
2022/06/28 10:10:07;;;;;;;5.68;2.00;;;19.90;99.90;;;;;;5034434;28;20517;-81
2022/06/28 10:15:24;;;;;;;6.00;2.50;;;19.90;99.90;;;;;;5050922;28;20090;-87
2022/06/28 10:18:21;;;;;;;4.53;2.50;;;19.70;99.90;;;;;;5031487;28;20523;-84
2022/06/28 10:20:47;;;;;;;5.45;1.98;;;;;;;;;;5016339;28;20136;-83
2022/06/28 10:23:25;;;;;;;5.20;1.70;;;20.10;99.90;;;;;;5018033;28;20048;-82
2022/06/28 10:26:11;;;;;;;6.88;1.70;;;20.10;99.90;;;;;;5051195;28;20107;-81
2022/06/28 10:28:46;;;;;;;4.25;1.42;;;20.30;99.90;;;;;;5029984;28;20048;-81
2022/06/28 10:31:23;;;;;;;5.35;2.10;;;20.20;99.90;;;;;;5016791;28;20037;-81
2022/06/28 10:33:54;;;;;;;4.93;1.48;;;20.40;99.90;;;;;;5035832;28;20088;-81
2022/06/28 10:36:22;;;;;;;4.32;1.55;;;20.10;99.90;;;;;;5015520;28;20052;-82
2022/06/28 10:39:09;;;;;;;7.75;1.40;;;20.20;99.90;;;;;;5050054;28;20150;-82
2022/06/28 10:41:47;;;;;;;5.43;1.60;;;20.10;99.90;;;;;;5063782;28;20107;-83
2022/06/28 10:44:29;;;;;;;6.25;1.67;;;20.30;99.90;;;;;;5055872;28;20044;-82
2022/06/28 10:47:01;;;;;;;5.63;1.63;;;20.20;99.90;;;;;;5058361;28;20167;-83
2022/06/28 10:50:02;;;;;;;4.05;1.63;;;20.60;99.90;;;;;;5008581;28;20045;-82
2022/06/28 10:52:35;;;;;;;3.75;1.25;;;20.70;99.90;;;;;;4962344;28;20089;-82
2022/06/28 10:55:04;;;;;;;3.72;1.52;;;;;;;;;;4985390;28;20221;-82
2022/06/28 10:57:32;;;;;;;4.10;1.40;;;20.80;99.90;;;;;;4986291;28;20100;-82
2022/06/28 11:00:06;;;;;;;4.47;1.42;;;21.10;99.90;;;;;;4970856;28;20194;-81
2022/06/28 11:02:51;;;;;;;6.80;1.75;;;21.00;99.90;;;;;;4960975;28;20062;-81
2022/06/28 11:05:23;;;;;;;4.10;2.10;;;21.20;99.90;;;;;;4926159;29;20381;-81
2022/06/28 11:08:00;;;;;;;6.53;2.95;;;20.70;99.90;;;;;;4960468;28;20059;-81
2022/06/28 11:10:26;;;;;;;7.38;1.63;;;20.80;99.90;;;;;;4954998;28;20122;-83
2022/06/28 11:12:52;;;;;;;4.97;1.85;;;;;;;;;;4953321;28;20047;-82
2022/06/28 11:15:32;;;;;;;5.40;2.40;;;21.00;99.90;;;;;;4944577;28;20086;-81
2022/06/28 11:17:59;;;;;;;8.95;1.70;;;20.90;99.90;;;;;;4946299;28;20073;-82
2022/06/28 11:20:25;;;;;;;5.45;1.55;;;21.10;99.90;;;;;;4975476;28;20045;-81
2022/06/28 11:22:52;;;;;;;6.97;1.83;;;20.90;99.90;;;;;;4975875;28;20090;-82
2022/06/28 11:25:22;;;;;;;8.15;2.10;;;21.20;99.90;;;;;;4968724;28;20118;-85
2022/06/28 11:27:57;;;;;;;4.85;1.80;;;21.20;99.90;;;;;;5009711;28;20056;-84
2022/06/28 11:30:27;;;;;;;6.68;2.42;;;21.30;99.90;;;;;;5027520;28;20502;-86
2022/06/28 11:32:57;;;;;;;3.33;1.42;;;21.10;99.90;;;;;;5008671;28;20106;-85
2022/06/28 11:35:25;;;;;;;4.18;1.60;;;21.10;99.90;;;;;;5025329;28;20449;-86
2022/06/28 11:37:56;;;;;;;4.45;1.60;;;21.00;99.90;;;;;;5025152;28;20124;-88
2022/06/28 11:40:27;;;;;;;6.22;1.58;;;21.10;99.90;;;;;;5033403;28;20055;-86
2022/06/28 11:43:06;;;;;;;6.07;2.10;;;21.10;99.90;;;;;;5032727;28;20045;-87
2022/06/28 11:45:35;;;;;;;5.65;1.50;;;20.90;99.90;;;;;;5030959;28;20041;-82
2022/06/28 11:48:10;;;;;;;4.60;1.60;;;21.40;99.90;;;;;;5014845;28;20041;-83
2022/06/28 11:50:44;;;;;;;4.07;1.63;;;21.40;99.90;;;;;;5049410;28;20497;-85
2022/06/28 11:53:12;;;;;;;3.00;1.75;;;21.50;99.90;;;;;;5016414;28;20079;-88
2022/06/28 11:55:40;;;;;;;4.85;2.42;;;21.20;99.90;;;;;;5044715;28;20033;-88
2022/06/28 11:58:29;;;;;;;4.95;1.85;;;21.50;99.90;;;;;;5005701;28;20505;-87
2022/06/28 12:01:04;;;;;;;4.40;1.60;;;21.60;99.90;;;;;;5032489;28;20664;-85
2022/06/28 12:03:31;;;;;;;3.80;1.35;;;21.30;99.90;;;;;;5033900;28;20492;-82
2022/06/28 12:05:58;;;;;;;6.00;1.88;;;21.40;99.90;;;;;;5031803;28;20088;-81
2022/06/28 12:08:44;;;;;;;2.75;1.50;;;21.40;99.90;;;;;;5030889;28;20045;-82
2022/06/28 12:11:31;;;;;;;5.13;1.50;;;21.50;99.90;;;;;;5029515;28;20124;-82
2022/06/28 12:14:05;;;;;;;5.63;1.50;;;21.30;99.90;;;;;;5044214;28;20037;-81
2022/06/28 12:16:36;;;;;;;5.82;2.00;;;21.10;99.90;;;;;;5013705;28;20513;-81
2022/06/28 12:19:04;;;;;;;6.00;2.00;;;21.50;99.90;;;;;;5030784;28;20120;-81
2022/06/28 12:21:30;;;;;;;6.07;2.22;;;21.50;99.90;;;;;;5008398;28;20084;-81
2022/06/28 12:23:58;;;;;;;6.15;2.50;;;21.70;99.90;;;;;;5031209;28;20052;-81
2022/06/28 12:26:44;;;;;;;5.35;1.88;;;21.50;99.90;;;;;;5009546;28;20057;-81
2022/06/28 12:29:12;;;;;;;8.95;2.90;;;21.70;99.90;;;;;;5052898;28;20044;-81
2022/06/28 12:31:40;;;;;;;8.02;1.98;;;21.40;99.90;;;;;;5061217;28;20045;-81
2022/06/28 12:34:07;;;;;;;7.13;1.52;;;21.60;99.90;;;;;;5018639;28;20053;-81
2022/06/28 12:36:34;;;;;;;6.43;1.73;;;21.70;99.90;;;;;;5035248;28;20033;-81
2022/06/28 12:39:00;;;;;;;4.45;1.48;;;;;;;;;;5038494;28;20401;-86
2022/06/28 12:41:26;;;;;;;2.97;1.52;;;;;;;;;;5032745;28;20469;-87
2022/06/28 12:43:52;;;;;;;5.18;1.65;;;;;;;;;;5032796;28;20052;-81
2022/06/28 12:46:18;;;;;;;4.57;1.70;;;22.10;99.90;;;;;;5027160;28;20038;-87
2022/06/28 12:48:43;;;;;;;10.52;3.03;;;22.40;99.90;;;;;;5054260;28;20040;-84
2022/06/28 12:51:09;;;;;;;5.72;2.35;;;22.50;99.90;;;;;;5045696;28;20079;-88
2022/06/28 12:53:35;;;;;;;7.10;1.92;;;22.30;99.90;;;;;;5050895;28;20045;-85
2022/06/28 12:56:01;;;;;;;4.38;1.35;;;;;;;;;;5015120;28;20045;-85
2022/06/28 12:58:27;;;;;;;6.57;1.50;;;22.80;99.90;;;;;;5051375;28;20460;-85
2022/06/28 13:00:52;;;;;;;7.47;2.63;;;22.60;99.90;;;;;;5062721;28;20037;-88
2022/06/28 13:03:18;;;;;;;2.85;1.40;;;23.00;99.90;;;;;;5035691;28;20120;-87
2022/06/28 13:05:44;;;;;;;4.80;1.55;;;;;;;;;;5026358;28;20040;-82
2022/06/28 13:08:10;;;;;;;5.47;1.48;;;22.80;99.90;;;;;;5022774;28;20040;-85
2022/06/28 13:10:36;;;;;;;10.93;1.35;;;23.30;99.90;;;;;;5035337;28;20132;-86
2022/06/28 13:13:02;;;;;;;3.22;1.60;;;23.10;99.90;;;;;;5036399;28;20060;-82
2022/06/28 13:15:27;;;;;;;7.15;1.65;;;23.10;99.90;;;;;;5036305;28;20467;-85
2022/06/28 13:17:53;;;;;;;4.65;1.48;;;23.30;99.90;;;;;;5060885;28;20135;-88
2022/06/28 13:20:19;;;;;;;5.13;1.58;;;;;;;;;;5044148;28;20128;-81
2022/06/28 13:22:46;;;;;;;3.70;1.27;;;23.30;99.90;;;;;;5017119;28;20080;-81
2022/06/28 13:25:12;;;;;;;6.32;1.77;;;23.40;99.90;;;;;;5041045;28;20041;-82
2022/06/28 13:27:38;;;;;;;1.52;1.05;;;23.60;99.90;;;;;;5057504;28;20391;-83
2022/06/28 13:30:06;;;;;;;3.40;1.10;;;23.50;99.90;;;;;;5058127;28;20080;-82
2022/06/28 13:32:32;;;;;;;8.68;1.23;;;23.70;99.90;;;;;;5033926;28;20040;-82
2022/06/28 13:34:58;;;;;;;3.53;1.42;;;23.80;99.90;;;;;;5011583;28;20120;-81
2022/06/28 13:37:27;;;;;;;4.18;1.70;;;24.00;99.90;;;;;;5050671;28;20183;-82
2022/06/28 13:39:53;;;;;;;3.83;1.45;;;24.10;99.90;;;;;;5028259;28;20037;-82
2022/06/28 13:42:19;;;;;;;4.70;1.20;;;24.10;99.90;;;;;;5009932;28;20042;-82
2022/06/28 13:44:45;;;;;;;2.67;0.90;;;24.10;99.90;;;;;;5031691;28;20064;-81
2022/06/28 13:47:11;;;;;;;2.83;1.25;;;24.30;99.90;;;;;;5012961;28;20044;-82
2022/06/28 13:49:37;;;;;;;4.70;1.50;;;24.30;99.90;;;;;;5035049;28;20045;-81
2022/06/28 13:52:03;;;;;;;2.38;1.20;;;24.40;99.90;;;;;;5018931;28;20122;-82
2022/06/28 13:54:28;;;;;;;7.07;1.17;;;24.20;99.90;;;;;;5008882;28;20045;-82
2022/06/28 13:56:54;;;;;;;2.88;1.25;;;24.50;99.90;;;;;;5035379;28;20060;-82
2022/06/28 13:59:20;;;;;;;8.57;1.80;;;24.30;99.90;;;;;;5034898;28;20570;-84
2022/06/28 14:01:46;;;;;;;3.90;1.00;;;24.50;99.90;;;;;;5016365;28;20088;-86
2022/06/28 14:04:16;;;;;;;3.80;1.00;;;24.40;99.90;;;;;;5016850;28;20044;-81
2022/06/28 14:06:42;;;;;;;1.83;1.00;;;24.40;99.90;;;;;;5034694;28;20045;-82
2022/06/28 14:09:08;;;;;;;5.50;1.55;;;24.50;99.90;;;;;;5042083;28;20084;-84